createdAt,value
2023-05-09T00:02:03.352Z,4.10
2023-05-09T00:04:32.790Z,4.43
2023-05-09T00:07:00.653Z,3.88
2023-05-09T00:09:28.551Z,4.30
2023-05-09T00:11:56.411Z,3.88
2023-05-09T00:14:24.924Z,4.05
2023-05-09T00:16:53.738Z,4.30
2023-05-09T00:19:23.064Z,4.00
2023-05-09T00:21:50.929Z,3.80
2023-05-09T00:24:18.900Z,4.45
2023-05-09T00:26:46.950Z,4.45
2023-05-09T00:29:14.738Z,4.53
2023-05-09T00:31:42.804Z,4.43
2023-05-09T00:34:11.048Z,4.15
2023-05-09T00:36:40.468Z,4.43
2023-05-09T00:39:09.604Z,4.15
2023-05-09T00:41:37.381Z,4.43
2023-05-09T00:44:05.883Z,3.97
2023-05-09T00:46:33.954Z,4.40
2023-05-09T00:49:01.979Z,4.18
2023-05-09T00:51:30.434Z,4.57
2023-05-09T00:54:00.056Z,4.68
2023-05-09T00:56:28.024Z,4.63
2023-05-09T00:58:56.644Z,4.85
2023-05-09T01:01:24.584Z,4.63
2023-05-09T01:03:53.216Z,4.72
2023-05-09T01:06:31.473Z,4.72
2023-05-09T01:09:07.355Z,4.63
2023-05-09T01:11:40.479Z,4.68
2023-05-09T01:14:16.787Z,4.53
2023-05-09T01:16:55.145Z,4.95
2023-05-09T01:19:41.836Z,4.35
2023-05-09T01:22:13.631Z,4.70
2023-05-09T01:25:03.128Z,5.32
2023-05-09T01:27:45.228Z,5.03
2023-05-09T01:30:17.518Z,4.95
2023-05-09T01:32:50.844Z,4.55
2023-05-09T01:35:19.825Z,4.90
2023-05-09T01:37:51.917Z,4.72
2023-05-09T01:40:21.869Z,4.78
2023-05-09T01:42:53.570Z,5.03
2023-05-09T01:45:24.879Z,4.75
2023-05-09T01:47:53.143Z,5.00
2023-05-09T01:50:22.767Z,5.03
2023-05-09T01:52:53.675Z,5.30
2023-05-09T01:55:25.564Z,5.03
2023-05-09T01:57:54.949Z,4.95
2023-05-09T02:00:25.423Z,4.68
2023-05-09T02:02:53.682Z,4.88
2023-05-09T02:05:23.240Z,4.60
2023-05-09T02:07:51.275Z,5.10
2023-05-09T02:10:20.855Z,4.80
2023-05-09T02:12:48.778Z,5.22
2023-05-09T02:15:17.028Z,4.75
2023-05-09T02:17:46.568Z,5.22
2023-05-09T02:20:14.412Z,5.22
2023-05-09T02:22:44.474Z,4.75
2023-05-09T02:25:15.598Z,5.15
2023-05-09T02:27:46.282Z,5.20
2023-05-09T02:30:20.590Z,4.88
2023-05-09T02:32:51.573Z,5.30
2023-05-09T02:35:20.218Z,5.20
2023-05-09T02:37:49.535Z,5.47
2023-05-09T02:40:17.772Z,5.07
2023-05-09T02:42:45.528Z,5.85
2023-05-09T02:45:13.794Z,5.15
2023-05-09T02:47:42.284Z,4.75
2023-05-09T02:50:12.439Z,5.55
2023-05-09T02:52:41.108Z,5.22
2023-05-09T02:55:10.149Z,5.22
2023-05-09T02:57:38.034Z,5.53
2023-05-09T03:00:09.365Z,5.35
2023-05-09T03:02:37.467Z,5.45
2023-05-09T03:05:05.995Z,5.63
2023-05-09T03:07:35.224Z,5.20
2023-05-09T03:10:03.103Z,5.90
2023-05-09T03:12:31.223Z,5.50
2023-05-09T03:14:59.064Z,5.45
2023-05-09T03:17:27.610Z,5.90
2023-05-09T03:19:55.830Z,5.72
2023-05-09T03:22:23.589Z,5.70
2023-05-09T03:24:52.710Z,6.10
2023-05-09T03:27:20.815Z,6.00
2023-05-09T03:29:48.533Z,5.68
2023-05-09T03:32:16.484Z,5.55
2023-05-09T03:34:44.255Z,5.88
2023-05-09T03:37:12.132Z,5.68
2023-05-09T03:39:42.395Z,5.85
2023-05-09T03:42:11.696Z,6.00
2023-05-09T03:44:39.499Z,6.43
2023-05-09T03:47:07.607Z,6.43
2023-05-09T03:49:35.642Z,6.50
2023-05-09T03:52:04.288Z,6.97
2023-05-09T03:54:32.250Z,6.68
2023-05-09T03:57:00.177Z,6.80
2023-05-09T03:59:30.480Z,6.00
2023-05-09T04:01:58.411Z,6.60
2023-05-09T04:04:26.679Z,6.45
2023-05-09T04:06:54.587Z,6.55
2023-05-09T04:09:22.499Z,6.60
2023-05-09T04:11:50.450Z,6.30
2023-05-09T04:14:18.244Z,6.18
2023-05-09T04:16:47.452Z,6.00
2023-05-09T04:19:15.370Z,5.78
2023-05-09T04:21:43.168Z,5.70
2023-05-09T04:24:11.025Z,6.10
2023-05-09T04:26:39.073Z,5.90
2023-05-09T04:29:06.947Z,5.85
2023-05-09T04:31:36.038Z,6.18
2023-05-09T04:34:05.277Z,5.60
2023-05-09T04:36:33.954Z,5.20
2023-05-09T04:39:05.213Z,5.65
2023-05-09T04:41:33.096Z,5.78
2023-05-09T04:44:00.975Z,5.15
2023-05-09T04:46:28.925Z,5.50
2023-05-09T04:48:56.785Z,5.25
2023-05-09T04:51:26.089Z,5.22
2023-05-09T04:53:53.927Z,5.10
2023-05-09T04:56:21.905Z,4.93
2023-05-09T04:58:49.820Z,5.70
2023-05-09T05:01:17.834Z,5.30
2023-05-09T05:03:46.123Z,5.05
2023-05-09T05:06:13.988Z,5.70
2023-05-09T05:08:43.233Z,5.30
2023-05-09T05:11:11.044Z,5.00
2023-05-09T05:13:39.016Z,4.68
2023-05-09T05:16:07.073Z,5.07
2023-05-09T05:18:35.031Z,5.13
2023-05-09T05:21:03.004Z,4.57
2023-05-09T05:23:30.794Z,5.10
2023-05-09T05:26:00.255Z,4.80
2023-05-09T05:28:28.067Z,4.97
2023-05-09T05:30:55.980Z,4.57
2023-05-09T05:33:23.853Z,4.68
2023-05-09T05:35:51.712Z,5.00
2023-05-09T05:38:19.748Z,4.45
2023-05-09T05:40:47.754Z,4.90
2023-05-09T05:43:16.870Z,4.57
2023-05-09T05:45:44.636Z,4.50
2023-05-09T05:48:12.548Z,4.38
2023-05-09T05:50:40.321Z,4.55
2023-05-09T05:53:08.050Z,4.47
2023-05-09T05:55:35.961Z,4.00
2023-05-09T05:58:03.759Z,4.22
2023-05-09T06:00:33.019Z,4.43
2023-05-09T06:03:00.890Z,4.10
2023-05-09T06:05:28.685Z,4.47
2023-05-09T06:07:56.547Z,4.20
2023-05-09T06:10:24.423Z,3.92
2023-05-09T06:12:52.375Z,4.40
2023-05-09T06:15:20.171Z,4.05
2023-05-09T06:17:50.028Z,4.40
2023-05-09T06:20:18.155Z,4.60
2023-05-09T06:22:45.972Z,4.68
2023-05-09T06:25:14.196Z,4.35
2023-05-09T06:27:42.853Z,3.75
2023-05-09T06:30:24.502Z,4.20
2023-05-09T06:32:54.593Z,4.15
2023-05-09T06:35:22.710Z,4.15
2023-05-09T06:37:50.503Z,4.55
2023-05-09T06:40:18.575Z,3.97
2023-05-09T06:42:46.562Z,3.85
2023-05-09T06:45:14.667Z,4.18
2023-05-09T06:47:42.743Z,4.40
2023-05-09T06:50:12.497Z,4.15
2023-05-09T06:52:40.352Z,3.95
2023-05-09T06:55:09.908Z,4.38
2023-05-09T06:57:38.038Z,3.90
2023-05-09T07:00:07.287Z,4.03
2023-05-09T07:02:35.177Z,4.20
2023-05-09T07:05:03.183Z,3.92
2023-05-09T07:07:32.401Z,3.83
2023-05-09T07:10:10.669Z,4.32
2023-05-09T07:12:41.978Z,4.03
2023-05-09T07:15:11.203Z,3.88
2023-05-09T07:17:39.272Z,3.80
2023-05-09T07:20:08.787Z,3.67
2023-05-09T07:22:38.549Z,4.20
2023-05-09T07:25:09.074Z,4.00
2023-05-09T07:27:37.154Z,3.78
2023-05-09T07:30:05.597Z,3.60
2023-05-09T07:32:33.554Z,4.15
2023-05-09T07:35:01.414Z,3.65
2023-05-09T07:37:29.221Z,4.15
2023-05-09T07:39:58.348Z,4.00
2023-05-09T07:42:26.430Z,3.83
2023-05-09T07:44:54.586Z,3.22
2023-05-09T07:47:22.602Z,3.30
2023-05-09T07:49:50.478Z,3.97
2023-05-09T07:52:18.688Z,3.55
2023-05-09T07:54:46.546Z,3.95
2023-05-09T07:57:16.113Z,3.83
2023-05-09T07:59:44.192Z,4.00
2023-05-09T08:02:11.983Z,3.60
2023-05-09T08:04:41.492Z,3.75
2023-05-09T08:07:09.611Z,3.40
2023-05-09T08:09:37.595Z,3.53
2023-05-09T08:12:06.085Z,3.50
2023-05-09T08:14:35.616Z,3.58
2023-05-09T08:17:03.464Z,3.58
2023-05-09T08:19:31.229Z,3.58
2023-05-09T08:21:59.096Z,3.40
2023-05-09T08:24:26.838Z,3.53
2023-05-09T08:26:55.848Z,3.70
2023-05-09T08:29:23.696Z,3.40
2023-05-09T08:31:53.023Z,3.30
2023-05-09T08:34:22.305Z,3.33
2023-05-09T08:36:50.202Z,3.22
2023-05-09T08:39:18.192Z,3.45
2023-05-09T08:41:46.481Z,3.15
2023-05-09T08:44:14.670Z,3.10
2023-05-09T08:46:45.421Z,3.50
2023-05-09T08:49:17.132Z,3.30
2023-05-09T08:51:45.976Z,3.13
2023-05-09T08:54:14.387Z,3.00
2023-05-09T08:56:43.143Z,3.10
2023-05-09T08:59:11.255Z,3.20
2023-05-09T09:01:39.437Z,3.58
2023-05-09T09:04:08.948Z,3.05
2023-05-09T09:06:38.968Z,2.50
2023-05-09T09:09:08.557Z,2.90
2023-05-09T09:11:37.450Z,2.58
2023-05-09T09:14:09.769Z,2.70
2023-05-09T09:16:38.757Z,2.50
2023-05-09T09:19:12.551Z,2.35
2023-05-09T09:21:43.788Z,2.78
2023-05-09T09:24:16.128Z,2.40
2023-05-09T09:26:50.006Z,2.60
2023-05-09T09:29:18.945Z,2.50
2023-05-09T09:31:55.705Z,2.22
2023-05-09T09:34:24.740Z,2.53
2023-05-09T09:36:54.226Z,2.58
2023-05-09T09:39:22.445Z,2.15
2023-05-09T09:41:50.442Z,2.05
2023-05-09T09:44:20.545Z,1.92
2023-05-09T09:46:50.629Z,1.92
2023-05-09T09:49:20.248Z,1.92
2023-05-09T09:51:52.145Z,2.17
2023-05-09T09:54:21.892Z,2.00
2023-05-09T09:56:51.808Z,2.20
2023-05-09T09:59:21.272Z,1.90
2023-05-09T10:02:06.641Z,2.20
2023-05-09T10:04:37.036Z,2.20
2023-05-09T10:07:07.398Z,2.08
2023-05-09T10:09:38.139Z,2.10
2023-05-09T10:12:07.308Z,2.03
2023-05-09T10:14:37.729Z,2.20
2023-05-09T10:17:06.880Z,2.15
2023-05-09T10:19:36.867Z,2.00
2023-05-09T10:22:06.866Z,2.25
2023-05-09T10:24:41.959Z,2.10
2023-05-09T10:27:12.797Z,2.10
2023-05-09T10:29:46.093Z,1.83
2023-05-09T10:32:20.545Z,2.30
2023-05-09T10:34:52.479Z,2.30
2023-05-09T10:37:22.451Z,2.30
2023-05-09T10:39:53.908Z,2.40
2023-05-09T10:42:25.256Z,2.28
2023-05-09T10:44:54.697Z,2.03
2023-05-09T10:47:23.371Z,2.78
2023-05-09T10:49:51.338Z,2.63
2023-05-09T10:52:19.212Z,2.67
2023-05-09T10:55:01.650Z,2.30
2023-05-09T10:57:30.679Z,2.70
2023-05-09T11:00:00.156Z,2.55
2023-05-09T11:02:31.008Z,2.30
2023-05-09T11:05:15.938Z,2.25
2023-05-09T11:07:44.418Z,2.25
2023-05-09T11:10:17.751Z,2.78
2023-05-09T11:12:58.019Z,2.60
2023-05-09T11:15:27.619Z,2.20
2023-05-09T11:18:07.928Z,2.70
2023-05-09T11:20:43.520Z,2.38
2023-05-09T11:23:11.941Z,2.17
2023-05-09T11:25:46.536Z,2.33
2023-05-09T11:28:28.893Z,2.55
2023-05-09T11:31:10.855Z,2.63
2023-05-09T11:33:40.224Z,2.63
2023-05-09T11:36:19.931Z,2.58
2023-05-09T11:38:48.693Z,2.90
2023-05-09T11:41:18.164Z,2.63
2023-05-09T11:43:46.417Z,3.05
2023-05-09T11:46:14.207Z,2.80
2023-05-09T11:48:42.940Z,2.80
2023-05-09T11:51:18.354Z,2.83
2023-05-09T11:53:47.026Z,2.78
2023-05-09T11:56:17.508Z,2.70
2023-05-09T11:58:46.756Z,2.78
2023-05-09T12:01:14.620Z,3.05
2023-05-09T12:03:46.038Z,2.70
2023-05-09T12:06:18.266Z,2.72
2023-05-09T12:08:47.397Z,2.90
2023-05-09T12:11:17.280Z,2.95
2023-05-09T12:13:49.665Z,3.05
2023-05-09T12:16:19.256Z,2.63
2023-05-09T12:18:48.211Z,3.30
2023-05-09T12:21:16.530Z,3.00
2023-05-09T12:23:44.628Z,3.10
2023-05-09T12:26:12.569Z,3.03
2023-05-09T12:28:42.682Z,3.22
2023-05-09T12:31:10.731Z,3.65
2023-05-09T12:33:39.899Z,3.17
2023-05-09T12:36:10.316Z,3.20
2023-05-09T12:38:38.904Z,3.38
2023-05-09T12:41:15.472Z,3.45
2023-05-09T12:43:51.729Z,3.38
2023-05-09T12:46:20.363Z,3.67
2023-05-09T12:48:49.516Z,3.45
2023-05-09T12:51:20.387Z,3.28
2023-05-09T12:53:50.101Z,3.20
2023-05-09T12:56:19.603Z,2.90
2023-05-09T12:58:53.010Z,3.50
2023-05-09T13:01:21.990Z,3.42
2023-05-09T13:03:53.500Z,3.70
2023-05-09T13:06:21.676Z,3.80
2023-05-09T13:08:58.908Z,3.83
2023-05-09T13:11:26.903Z,3.80
2023-05-09T13:13:56.730Z,3.55
2023-05-09T13:16:24.883Z,3.50
2023-05-09T13:18:52.692Z,3.88
2023-05-09T13:21:21.036Z,3.40
2023-05-09T13:23:50.201Z,3.55
2023-05-09T13:26:18.121Z,3.38
2023-05-09T13:28:45.943Z,3.20
2023-05-09T13:31:15.338Z,2.92
2023-05-09T13:33:43.199Z,3.20
2023-05-09T13:36:11.153Z,3.00
2023-05-09T13:38:40.979Z,3.00
2023-05-09T13:41:08.931Z,2.90
2023-05-09T13:43:37.562Z,3.30
2023-05-09T13:46:05.461Z,3.10
2023-05-09T13:48:34.627Z,3.20
2023-05-09T13:51:02.476Z,3.28
2023-05-09T13:53:30.407Z,2.92
2023-05-09T13:55:58.433Z,3.40
2023-05-09T13:58:26.252Z,3.22
2023-05-09T14:00:54.038Z,3.22
2023-05-09T14:03:21.915Z,3.75
2023-05-09T14:05:51.854Z,3.30
2023-05-09T14:08:21.308Z,3.38
2023-05-09T14:10:50.078Z,3.10
2023-05-09T14:13:18.215Z,3.30
2023-05-09T14:15:48.501Z,3.17
2023-05-09T14:18:20.057Z,3.10
2023-05-09T14:20:49.120Z,3.22
2023-05-09T14:23:18.466Z,3.03
2023-05-09T14:25:46.319Z,2.95
2023-05-09T14:28:14.604Z,3.03
2023-05-09T14:30:42.952Z,3.45
2023-05-09T14:33:14.516Z,3.35
2023-05-09T14:35:42.391Z,2.85
2023-05-09T14:38:10.352Z,2.90
2023-05-09T14:40:39.522Z,2.80
2023-05-09T14:43:07.431Z,2.85
2023-05-09T14:45:35.506Z,3.13
2023-05-09T14:48:03.969Z,3.03
2023-05-09T14:50:32.066Z,3.30
2023-05-09T14:53:03.832Z,3.00
2023-05-09T14:55:32.504Z,3.00
2023-05-09T14:58:02.559Z,3.60
2023-05-09T15:00:31.020Z,3.03
2023-05-09T15:02:58.999Z,3.30
2023-05-09T15:05:26.891Z,3.35
2023-05-09T15:07:54.805Z,3.55
2023-05-09T15:10:22.902Z,3.40
2023-05-09T15:12:50.872Z,3.22
2023-05-09T15:15:21.658Z,3.17
2023-05-09T15:17:49.593Z,3.38
2023-05-09T15:20:18.662Z,3.30
2023-05-09T15:22:47.676Z,3.47
2023-05-09T15:25:16.820Z,3.55
2023-05-09T15:27:44.868Z,3.65
2023-05-09T15:30:13.992Z,3.80
2023-05-09T15:32:43.576Z,3.78
2023-05-09T15:35:11.487Z,3.47
2023-05-09T15:37:39.549Z,3.38
2023-05-09T15:40:09.247Z,4.57
2023-05-09T15:42:37.655Z,3.92
2023-05-09T15:45:06.519Z,4.03
2023-05-09T15:47:34.330Z,4.00
2023-05-09T15:50:03.551Z,3.80
2023-05-09T15:52:31.918Z,4.40
2023-05-09T15:54:59.898Z,3.83
2023-05-09T15:57:28.033Z,3.80
2023-05-09T15:59:56.117Z,3.60
2023-05-09T16:02:24.261Z,3.72
2023-05-09T16:04:52.496Z,4.40
2023-05-09T16:07:21.948Z,3.90
2023-05-09T16:09:50.015Z,3.70
2023-05-09T16:12:17.974Z,3.80
2023-05-09T16:14:45.985Z,3.63
2023-05-09T16:17:14.023Z,3.47
2023-05-09T16:19:42.444Z,3.80
2023-05-09T16:22:10.369Z,3.60
2023-05-09T16:24:39.478Z,3.78
2023-05-09T16:27:07.503Z,3.45
2023-05-09T16:29:35.280Z,3.78
2023-05-09T16:32:04.222Z,4.00
2023-05-09T16:34:32.953Z,3.92
2023-05-09T16:37:01.407Z,4.20
2023-05-09T16:39:29.683Z,4.20
2023-05-09T16:41:59.693Z,3.67
2023-05-09T16:44:27.603Z,3.95
2023-05-09T16:46:55.346Z,4.07
2023-05-09T16:49:23.187Z,4.32
2023-05-09T16:51:50.952Z,4.22
2023-05-09T16:54:18.755Z,4.10
2023-05-09T16:56:46.818Z,3.97
2023-05-09T16:59:17.360Z,4.35
2023-05-09T17:01:45.151Z,4.03
2023-05-09T17:04:12.989Z,4.22
2023-05-09T17:06:40.810Z,4.28
2023-05-09T17:09:08.702Z,4.47
2023-05-09T17:11:36.691Z,4.32
2023-05-09T17:14:04.792Z,3.78
2023-05-09T17:16:35.300Z,4.07
2023-05-09T17:19:05.283Z,3.95
2023-05-09T17:21:33.240Z,4.28
2023-05-09T17:24:02.013Z,3.65
2023-05-09T17:26:30.670Z,3.78
2023-05-09T17:28:58.449Z,4.03
2023-05-09T17:31:26.539Z,4.13
2023-05-09T17:33:55.956Z,3.55
2023-05-09T17:36:23.829Z,3.67
2023-05-09T17:38:52.270Z,4.22
2023-05-09T17:41:20.377Z,4.20
2023-05-09T17:43:51.920Z,3.70
2023-05-09T17:46:20.022Z,3.83
2023-05-09T17:48:48.291Z,3.72
2023-05-09T17:51:17.906Z,3.88
2023-05-09T17:53:46.809Z,4.10
2023-05-09T17:56:14.710Z,4.25
2023-05-09T17:58:42.482Z,4.07
2023-05-09T18:01:10.765Z,4.28
2023-05-09T18:03:39.363Z,3.97
2023-05-09T18:06:07.511Z,4.32
2023-05-09T18:08:37.093Z,4.40
2023-05-09T18:11:05.616Z,4.43
2023-05-09T18:13:34.381Z,3.80
2023-05-09T18:16:02.798Z,4.80
2023-05-09T18:18:32.355Z,4.40
2023-05-09T18:21:00.393Z,4.50
2023-05-09T18:23:28.404Z,4.18
2023-05-09T18:25:57.660Z,4.40
2023-05-09T18:28:27.457Z,4.18
2023-05-09T18:30:56.887Z,4.32
2023-05-09T18:33:26.328Z,4.30
2023-05-09T18:35:55.045Z,4.45
2023-05-09T18:38:23.831Z,4.45
2023-05-09T18:40:52.290Z,4.47
2023-05-09T18:43:22.462Z,4.53
2023-05-09T18:45:51.892Z,4.53
2023-05-09T18:48:20.117Z,4.85
2023-05-09T18:50:48.893Z,4.50
2023-05-09T18:53:16.760Z,4.40
2023-05-09T18:55:44.711Z,4.35
2023-05-09T18:58:12.564Z,5.07
2023-05-09T19:00:42.860Z,4.55
2023-05-09T19:03:10.713Z,4.35
2023-05-09T19:05:38.656Z,4.40
2023-05-09T19:08:07.058Z,4.80
2023-05-09T19:10:36.197Z,4.68
2023-05-09T19:13:04.180Z,5.10
2023-05-09T19:15:32.148Z,5.35
2023-05-09T19:18:02.039Z,5.10
2023-05-09T19:20:30.376Z,4.10
2023-05-09T19:25:43.740Z,5.00
2023-05-09T19:28:14.585Z,4.78
2023-05-09T19:30:42.581Z,4.80
2023-05-09T19:33:12.083Z,4.40
2023-05-09T19:35:39.907Z,5.20
2023-05-09T19:38:08.796Z,5.05
2023-05-09T19:40:36.665Z,5.07
2023-05-09T19:43:04.747Z,5.07
2023-05-09T19:45:32.624Z,5.03
2023-05-09T19:48:00.672Z,5.47
2023-05-09T19:50:31.066Z,5.65
2023-05-09T19:52:59.418Z,5.30
2023-05-09T19:55:27.455Z,5.45
2023-05-09T19:57:55.298Z,5.25
2023-05-09T20:00:23.205Z,5.40
2023-05-09T20:02:51.147Z,5.15
2023-05-09T20:05:19.121Z,5.70
2023-05-09T20:10:34.252Z,5.32
2023-05-09T20:13:03.951Z,5.07
2023-05-09T20:15:32.232Z,5.45
2023-05-09T20:18:03.568Z,4.82
2023-05-09T20:20:32.691Z,5.53
2023-05-09T20:23:02.278Z,5.10
2023-05-09T20:25:30.556Z,5.50
2023-05-09T20:27:58.826Z,5.20
2023-05-09T20:30:27.242Z,5.50
2023-05-09T20:32:55.250Z,5.70
2023-05-09T20:35:23.232Z,5.43
2023-05-09T20:37:51.232Z,5.15
2023-05-09T20:40:20.780Z,5.57
2023-05-09T20:42:48.596Z,5.55
2023-05-09T20:45:16.578Z,5.15
2023-05-09T20:47:44.511Z,5.18
2023-05-09T20:50:12.549Z,4.75
2023-05-09T20:52:40.344Z,4.75
2023-05-09T20:55:08.813Z,5.35
2023-05-09T20:57:38.031Z,5.20
2023-05-09T21:00:07.666Z,4.93
2023-05-09T21:02:35.840Z,5.15
2023-05-09T21:05:03.829Z,4.97
2023-05-09T21:07:31.691Z,5.07
2023-05-09T21:09:59.722Z,5.57
2023-05-09T21:12:27.858Z,4.95
2023-05-09T21:14:56.953Z,4.60
2023-05-09T21:17:24.888Z,4.60
2023-05-09T21:19:52.697Z,5.40
2023-05-09T21:22:20.575Z,4.72
2023-05-09T21:24:48.492Z,5.25
2023-05-09T21:27:16.282Z,5.20
2023-05-09T21:29:44.054Z,4.72
2023-05-09T21:32:13.242Z,5.50
2023-05-09T21:34:41.100Z,5.00
2023-05-09T21:37:08.955Z,5.40
2023-05-09T21:39:36.862Z,5.55
2023-05-09T21:42:04.963Z,5.10
2023-05-09T21:44:33.160Z,5.10
2023-05-09T21:47:01.952Z,5.38
2023-05-09T21:49:31.811Z,5.40
2023-05-09T21:52:02.143Z,5.07
2023-05-09T21:54:31.712Z,5.35
2023-05-09T21:56:59.569Z,6.25
2023-05-09T21:59:28.219Z,5.55
2023-05-09T22:01:56.112Z,5.00
2023-05-09T22:04:24.008Z,5.45
2023-05-09T22:06:53.276Z,5.43
2023-05-09T22:09:21.218Z,5.40
2023-05-09T22:11:48.991Z,5.40
2023-05-09T22:14:16.977Z,5.50
2023-05-09T22:16:44.804Z,5.53
2023-05-09T22:19:12.728Z,5.82
2023-05-09T22:21:40.723Z,6.13
2023-05-09T22:24:10.035Z,6.22
2023-05-09T22:26:37.914Z,5.93
2023-05-09T22:29:06.001Z,6.15
2023-05-09T22:31:33.956Z,6.25
2023-05-09T22:34:02.063Z,6.40
2023-05-09T22:36:29.967Z,5.90
2023-05-09T22:38:57.912Z,6.57
2023-05-09T22:41:27.550Z,5.85
2023-05-09T22:43:55.463Z,6.65
2023-05-09T22:46:23.457Z,7.07
2023-05-09T22:48:51.324Z,7.15
2023-05-09T22:51:19.294Z,6.72
2023-05-09T22:53:51.871Z,5.90
2023-05-09T22:56:19.749Z,6.55
2023-05-09T22:58:49.719Z,6.13
2023-05-09T23:01:17.551Z,6.38
2023-05-09T23:03:45.667Z,6.22
2023-05-09T23:06:13.471Z,6.63
2023-05-09T23:08:41.428Z,6.60
2023-05-09T23:11:09.306Z,7.32
2023-05-09T23:13:37.125Z,5.82
2023-05-09T23:16:07.155Z,7.22
2023-05-09T23:18:34.959Z,6.85
2023-05-09T23:21:02.809Z,6.00
2023-05-09T23:23:30.602Z,6.43
2023-05-09T23:25:58.517Z,7.00
2023-05-09T23:28:27.345Z,6.80
2023-05-09T23:30:55.600Z,6.70
2023-05-09T23:33:24.768Z,6.35
2023-05-09T23:35:52.582Z,7.13
2023-05-09T23:38:20.760Z,6.80
2023-05-09T23:40:48.630Z,6.95
2023-05-09T23:43:16.445Z,7.78
2023-05-09T23:45:44.533Z,7.10
2023-05-09T23:48:12.521Z,7.63
2023-05-09T23:50:42.592Z,7.40
2023-05-09T23:53:10.783Z,7.72
2023-05-09T23:55:39.318Z,7.38
2023-05-09T23:58:07.164Z,7.70
